Time;durP1;ratioP1;P1;durP2;ratioP2;P2;SDS_P1;SDS_P2;PMS_P1;PMS_P2;Temp;Humidity;BMP_temperature;BMP_pressure;BME280_temperature;BME280_humidity;BME280_pressure;Samples;Min_cycle;Max_cycle;Signal;HPM_P1;HPM_P2
2022/11/07 00:00:34;;;;;;;18.03;13.33;;;7.80;99.90;;;;;;5096223;28;20896;-67
2022/11/07 00:03:01;;;;;;;18.60;12.43;;;7.80;99.90;;;;;;5096122;28;20537;-65
2022/11/07 00:05:29;;;;;;;19.10;13.20;;;7.90;99.90;;;;;;5096209;28;20456;-66
2022/11/07 00:07:56;;;;;;;16.33;12.77;;;7.90;99.90;;;;;;5096342;28;20461;-66
2022/11/07 00:10:23;;;;;;;18.40;14.17;;;7.90;99.90;;;;;;5096878;28;20835;-66
2022/11/07 00:12:50;;;;;;;21.93;13.27;;;7.90;99.90;;;;;;5096778;28;20951;-66
2022/11/07 00:15:17;;;;;;;16.67;12.37;;;7.90;99.90;;;;;;5096695;28;20457;-66
2022/11/07 00:17:44;;;;;;;17.63;12.20;;;7.90;99.90;;;;;;5096985;28;20476;-67
2022/11/07 00:20:12;;;;;;;15.30;11.30;;;7.80;99.90;;;;;;5097198;28;20449;-66
2022/11/07 00:22:40;;;;;;;17.23;12.60;;;7.80;99.90;;;;;;5095950;28;20548;-66
2022/11/07 00:25:08;;;;;;;20.53;12.23;;;7.80;99.90;;;;;;5096190;28;20481;-65
2022/11/07 00:27:35;;;;;;;16.70;11.87;;;7.80;99.90;;;;;;5096371;28;20483;-67
2022/11/07 00:30:02;;;;;;;16.60;12.20;;;7.80;99.90;;;;;;5095727;28;20477;-67
2022/11/07 00:32:29;;;;;;;20.00;12.97;;;7.80;99.90;;;;;;5096865;28;20493;-67
2022/11/07 00:34:56;;;;;;;16.73;13.37;;;7.80;99.90;;;;;;5099883;28;20934;-67
2022/11/07 00:37:23;;;;;;;17.10;12.67;;;7.80;99.90;;;;;;5100219;28;20457;-67
2022/11/07 00:39:51;;;;;;;19.50;14.07;;;7.80;99.90;;;;;;5100861;28;20961;-67
2022/11/07 00:42:18;;;;;;;17.57;12.00;;;7.80;99.90;;;;;;5100199;28;20508;-67
2022/11/07 00:44:45;;;;;;;17.03;12.20;;;7.80;99.90;;;;;;5100263;28;20499;-67
2022/11/07 00:47:12;;;;;;;16.00;12.17;;;7.80;99.90;;;;;;5100368;28;20449;-65
2022/11/07 00:49:38;;;;;;;15.87;12.67;;;7.80;99.90;;;;;;5099989;28;20485;-67
2022/11/07 00:52:05;;;;;;;15.80;11.10;;;7.80;99.90;;;;;;5099870;28;20488;-67
2022/11/07 00:54:32;;;;;;;18.63;11.63;;;7.80;99.90;;;;;;5099982;28;20465;-66
2022/11/07 00:57:01;;;;;;;16.53;11.93;;;7.80;99.90;;;;;;5099346;28;20543;-67
2022/11/07 00:59:27;;;;;;;18.93;13.00;;;7.80;99.90;;;;;;5099066;28;20454;-67
2022/11/07 01:01:54;;;;;;;19.20;12.90;;;7.90;99.90;;;;;;5099301;28;20830;-67
2022/11/07 01:07:06;;;;;;;17.20;12.87;;;8.00;99.90;;;;;;5098873;28;20425;-67
2022/11/07 01:09:33;;;;;;;17.63;12.20;;;8.10;99.90;;;;;;5098460;28;20941;-66
2022/11/07 01:12:01;;;;;;;15.40;12.27;;;8.20;99.90;;;;;;5098720;28;20453;-66
2022/11/07 01:14:29;;;;;;;17.40;11.63;;;8.20;99.90;;;;;;5098563;28;20489;-65
2022/11/07 01:16:56;;;;;;;16.93;11.43;;;8.10;99.90;;;;;;5098576;28;20492;-68
2022/11/07 01:19:23;;;;;;;18.03;12.07;;;8.10;99.90;;;;;;5098536;28;20461;-67
2022/11/07 01:21:50;;;;;;;16.57;11.67;;;8.20;99.90;;;;;;5098175;28;20458;-67
2022/11/07 01:24:17;;;;;;;16.57;11.77;;;8.20;99.90;;;;;;5097654;28;20449;-67
2022/11/07 01:26:46;;;;;;;14.20;10.50;;;8.20;99.90;;;;;;5097942;28;20510;-66
2022/11/07 01:29:15;;;;;;;16.07;11.43;;;8.30;99.90;;;;;;5098455;28;20526;-66
2022/11/07 01:31:42;;;;;;;15.87;11.73;;;8.20;99.90;;;;;;5098345;28;20457;-66
2022/11/07 01:34:09;;;;;;;16.83;12.27;;;8.20;99.90;;;;;;5098274;28;20454;-67
2022/11/07 01:36:36;;;;;;;14.97;11.37;;;8.20;99.90;;;;;;5098049;28;20506;-67
2022/11/07 01:39:04;;;;;;;15.10;12.07;;;8.20;99.90;;;;;;5099037;28;20540;-66
2022/11/07 01:41:34;;;;;;;14.87;12.30;;;8.30;99.90;;;;;;5098131;28;20933;-67
2022/11/07 01:44:03;;;;;;;15.70;11.77;;;8.30;99.90;;;;;;5098562;28;20522;-66
2022/11/07 01:46:34;;;;;;;19.60;12.20;;;8.30;99.90;;;;;;5098483;28;20841;-66
2022/11/07 01:49:09;;;;;;;18.10;12.50;;;8.20;99.90;;;;;;5098089;28;20557;-66
2022/11/07 01:51:41;;;;;;;14.63;10.93;;;8.30;99.90;;;;;;5098355;28;20471;-66
2022/11/07 01:54:08;;;;;;;15.80;11.20;;;8.30;99.90;;;;;;5097767;28;20507;-66
2022/11/07 01:56:38;;;;;;;14.20;11.30;;;8.30;99.90;;;;;;5097856;28;20536;-67
2022/11/07 01:59:06;;;;;;;15.00;10.57;;;8.30;99.90;;;;;;5097875;28;20477;-66
2022/11/07 02:01:35;;;;;;;15.87;11.70;;;8.30;99.90;;;;;;5097744;28;20458;-65
2022/11/07 02:04:03;;;;;;;15.50;11.37;;;8.30;99.90;;;;;;5097516;28;20780;-65
2022/11/07 02:06:39;;;;;;;14.57;10.80;;;8.30;99.90;;;;;;5097750;28;20458;-66
2022/11/07 02:09:06;;;;;;;14.40;11.23;;;8.30;99.90;;;;;;5098277;28;20558;-66
2022/11/07 02:11:33;;;;;;;15.83;11.20;;;8.20;99.90;;;;;;5100271;28;20481;-66
2022/11/07 02:14:00;;;;;;;16.00;10.90;;;8.20;99.90;;;;;;5100126;28;20775;-66
2022/11/07 02:16:28;;;;;;;18.23;11.60;;;8.20;99.90;;;;;;5099574;28;20457;-65
2022/11/07 02:18:56;;;;;;;14.30;11.20;;;8.20;99.90;;;;;;5097886;28;20453;-66
2022/11/07 02:21:34;;;;;;;15.53;11.27;;;8.30;99.90;;;;;;5098131;28;20485;-66
2022/11/07 02:24:11;;;;;;;16.10;12.00;;;8.20;99.90;;;;;;5097150;28;20908;-66
2022/11/07 02:26:39;;;;;;;15.60;11.70;;;8.20;99.90;;;;;;5097476;28;20473;-68
2022/11/07 02:29:09;;;;;;;16.40;11.20;;;8.20;99.90;;;;;;5096690;28;20453;-67
2022/11/07 02:31:36;;;;;;;17.13;10.73;;;8.20;99.90;;;;;;5098021;28;20454;-68
2022/11/07 02:34:03;;;;;;;13.80;10.73;;;8.20;99.90;;;;;;5097920;28;20457;-68
2022/11/07 02:36:30;;;;;;;15.93;12.33;;;8.30;99.90;;;;;;5097739;28;20908;-68
2022/11/07 02:38:59;;;;;;;16.43;11.00;;;8.30;99.90;;;;;;5097759;28;20843;-68
2022/11/07 02:41:31;;;;;;;18.30;12.23;;;8.30;99.90;;;;;;5097373;28;20549;-68
2022/11/07 02:44:03;;;;;;;15.20;11.10;;;8.30;99.90;;;;;;5098169;28;20481;-67
2022/11/07 02:46:31;;;;;;;15.27;10.07;;;8.40;99.90;;;;;;5098029;28;20442;-67
2022/11/07 02:49:00;;;;;;;15.10;10.33;;;8.40;99.90;;;;;;5097673;28;20540;-68
2022/11/07 02:51:27;;;;;;;13.50;11.07;;;8.40;99.90;;;;;;5097655;28;20499;-67
2022/11/07 02:53:54;;;;;;;15.70;11.23;;;8.40;99.90;;;;;;5097468;28;20500;-68
2022/11/07 02:56:22;;;;;;;12.80;9.87;;;8.40;99.90;;;;;;5097116;28;20457;-68
2022/11/07 02:58:52;;;;;;;15.13;11.00;;;8.40;99.90;;;;;;5097909;28;20489;-68
2022/11/07 03:01:19;;;;;;;12.67;10.00;;;8.50;99.90;;;;;;5097545;28;20469;-68
2022/11/07 03:03:48;;;;;;;13.30;9.83;;;8.60;99.90;;;;;;5097120;28;20519;-68
2022/11/07 03:06:17;;;;;;;10.87;9.20;;;8.60;99.90;;;;;;5097342;28;20539;-69
2022/11/07 03:08:44;;;;;;;13.87;10.53;;;8.60;99.90;;;;;;5097944;28;20449;-68
2022/11/07 03:11:12;;;;;;;12.17;10.43;;;8.60;99.90;;;;;;5097549;28;20480;-68
2022/11/07 03:13:40;;;;;;;12.00;8.43;;;8.70;99.90;;;;;;5097922;28;20457;-68
2022/11/07 03:16:10;;;;;;;14.93;9.90;;;8.70;99.90;;;;;;5097809;28;20453;-69
2022/11/07 03:18:38;;;;;;;13.20;10.30;;;8.70;99.90;;;;;;5097808;28;20442;-68
2022/11/07 03:21:06;;;;;;;10.67;8.80;;;8.80;99.90;;;;;;5097439;28;20456;-68
2022/11/07 03:23:34;;;;;;;11.07;9.00;;;8.80;99.90;;;;;;5096593;28;20493;-69
2022/11/07 03:26:01;;;;;;;9.53;8.53;;;8.90;99.90;;;;;;5097142;28;20477;-67
2022/11/07 03:28:28;;;;;;;10.27;8.17;;;8.90;99.90;;;;;;5096930;28;20489;-67
2022/11/07 03:30:59;;;;;;;10.63;8.57;;;9.00;99.90;;;;;;5097399;28;20485;-69
2022/11/07 03:33:27;;;;;;;11.93;9.10;;;9.00;99.90;;;;;;5096086;28;20468;-67
2022/11/07 03:35:54;;;;;;;10.93;8.60;;;9.00;99.90;;;;;;5096913;28;20901;-67
2022/11/07 03:38:21;;;;;;;11.70;8.53;;;9.10;99.90;;;;;;5096241;28;20457;-66
2022/11/07 03:40:48;;;;;;;10.10;8.73;;;9.10;99.90;;;;;;5096789;28;20466;-67
2022/11/07 03:43:15;;;;;;;10.07;8.60;;;9.20;99.90;;;;;;5096487;28;20457;-68
2022/11/07 03:45:42;;;;;;;9.93;7.40;;;9.20;99.90;;;;;;5096615;28;20921;-68
2022/11/07 03:48:09;;;;;;;11.70;8.20;;;9.20;99.90;;;;;;5096358;28;20522;-68
2022/11/07 03:50:37;;;;;;;8.53;7.60;;;9.20;99.90;;;;;;5096054;28;20484;-68
2022/11/07 03:53:04;;;;;;;9.00;7.37;;;9.20;99.90;;;;;;5097365;28;20969;-68
2022/11/07 03:55:31;;;;;;;10.77;8.73;;;9.20;99.90;;;;;;5095705;28;20496;-68
2022/11/07 03:57:58;;;;;;;9.57;8.07;;;9.20;99.90;;;;;;5095778;28;20540;-69
2022/11/07 04:00:25;;;;;;;10.20;8.33;;;9.20;99.90;;;;;;5096230;28;20450;-68
2022/11/07 04:02:52;;;;;;;11.43;8.20;;;9.30;99.90;;;;;;5097092;28;20786;-68
2022/11/07 04:05:19;;;;;;;10.57;8.90;;;9.30;99.90;;;;;;5096753;28;20547;-68
2022/11/07 04:07:47;;;;;;;10.17;7.63;;;9.30;99.90;;;;;;5097873;28;20586;-68
2022/11/07 04:10:14;;;;;;;12.00;7.83;;;9.30;99.90;;;;;;5099086;28;20835;-68
2022/11/07 04:18:09;;;;;;;8.43;6.93;;;9.30;99.90;;;;;;5099833;28;20626;-68
2022/11/07 04:20:36;;;;;;;9.70;7.80;;;9.30;99.90;;;;;;5100015;28;20492;-68
2022/11/07 04:23:05;;;;;;;8.93;8.03;;;9.40;99.90;;;;;;5099748;28;20526;-68
2022/11/07 04:28:20;;;;;;;9.33;7.80;;;9.40;99.90;;;;;;5099255;28;20428;-67
2022/11/07 04:30:47;;;;;;;8.63;7.00;;;9.40;99.90;;;;;;5098965;28;20560;-67
2022/11/07 04:33:14;;;;;;;9.80;7.40;;;9.40;99.90;;;;;;5099529;28;20526;-67
2022/11/07 04:35:41;;;;;;;9.30;7.60;;;9.50;99.90;;;;;;5099032;28;20484;-68
2022/11/07 04:38:09;;;;;;;9.23;7.73;;;9.40;99.90;;;;;;5099132;28;20453;-68
2022/11/07 04:40:36;;;;;;;9.30;8.00;;;9.40;99.90;;;;;;5100218;28;20556;-67
2022/11/07 04:43:07;;;;;;;10.57;8.23;;;9.40;99.90;;;;;;5100172;28;20491;-69
2022/11/07 04:45:35;;;;;;;9.30;7.53;;;9.40;99.90;;;;;;5099431;28;20444;-67
2022/11/07 04:48:02;;;;;;;9.73;7.13;;;9.40;99.90;;;;;;5100214;28;20539;-68
2022/11/07 04:50:29;;;;;;;8.17;7.37;;;9.50;99.90;;;;;;5099027;28;20485;-67
2022/11/07 04:52:56;;;;;;;11.10;8.47;;;9.40;99.90;;;;;;5099257;28;20457;-68
2022/11/07 04:55:29;;;;;;;9.23;7.07;;;9.50;99.90;;;;;;5100473;28;20461;-68
2022/11/07 04:57:56;;;;;;;9.90;7.67;;;9.50;99.90;;;;;;5100021;28;20442;-68
2022/11/07 05:00:24;;;;;;;8.60;6.97;;;9.50;99.90;;;;;;5099884;28;20545;-68
2022/11/07 05:02:51;;;;;;;7.37;6.67;;;9.50;99.90;;;;;;5099024;28;21005;-68
2022/11/07 05:05:19;;;;;;;7.77;6.30;;;9.50;99.90;;;;;;5099139;28;20461;-68
2022/11/07 05:07:46;;;;;;;9.80;7.70;;;9.50;99.90;;;;;;5099571;28;20453;-68
2022/11/07 05:10:21;;;;;;;8.33;7.40;;;9.50;99.90;;;;;;5099712;28;20572;-68
2022/11/07 05:12:49;;;;;;;9.57;7.00;;;9.50;99.90;;;;;;5099437;28;20473;-67
2022/11/07 05:15:17;;;;;;;8.50;7.37;;;9.50;99.90;;;;;;5099426;28;20452;-68
2022/11/07 05:17:44;;;;;;;8.37;7.00;;;9.50;99.90;;;;;;5099196;28;20481;-67
2022/11/07 05:20:28;;;;;;;12.17;7.30;;;9.50;99.90;;;;;;5099389;28;20449;-69
2022/11/07 05:23:17;;;;;;;7.27;6.47;;;9.50;99.90;;;;;;5098521;28;20433;-68
2022/11/07 05:25:46;;;;;;;7.70;6.80;;;9.50;99.90;;;;;;5098671;28;20827;-68
2022/11/07 05:28:16;;;;;;;10.40;7.30;;;9.50;99.90;;;;;;5098160;28;20578;-67
2022/11/07 05:30:45;;;;;;;8.40;6.57;;;9.50;99.90;;;;;;5097353;28;20465;-68
2022/11/07 05:33:13;;;;;;;6.17;5.57;;;9.50;99.90;;;;;;5097699;28;20453;-68
2022/11/07 05:35:40;;;;;;;7.03;6.30;;;9.50;99.90;;;;;;5098257;28;20449;-68
2022/11/07 05:38:07;;;;;;;8.57;5.97;;;9.50;99.90;;;;;;5097337;28;20489;-68
2022/11/07 05:40:36;;;;;;;9.23;6.30;;;9.60;99.90;;;;;;5098267;28;20532;-68
2022/11/07 05:43:04;;;;;;;7.60;6.80;;;9.50;99.90;;;;;;5099228;28;20495;-67
2022/11/07 05:45:36;;;;;;;6.10;5.50;;;9.50;99.90;;;;;;5099288;28;20628;-68
2022/11/07 05:48:05;;;;;;;6.87;6.17;;;9.50;99.90;;;;;;5098008;28;20453;-68
2022/11/07 05:50:32;;;;;;;6.83;6.13;;;9.50;99.90;;;;;;5098586;28;20564;-68
2022/11/07 05:52:59;;;;;;;9.27;6.73;;;9.50;99.90;;;;;;5098048;28;20487;-67
2022/11/07 05:55:27;;;;;;;7.87;6.50;;;9.50;99.90;;;;;;5098796;28;20457;-68
2022/11/07 05:57:54;;;;;;;8.20;6.43;;;9.60;99.90;;;;;;5097801;28;20544;-67
2022/11/07 06:00:22;;;;;;;6.73;6.03;;;9.50;99.90;;;;;;5098355;28;20836;-68
2022/11/07 06:02:56;;;;;;;6.90;6.03;;;9.60;99.90;;;;;;5097288;28;20506;-68
2022/11/07 06:05:23;;;;;;;8.20;5.90;;;9.60;99.90;;;;;;5098235;28;20524;-68
2022/11/07 06:07:50;;;;;;;6.60;5.90;;;9.50;99.90;;;;;;5097731;28;20464;-68
2022/11/07 06:10:17;;;;;;;9.10;6.67;;;9.50;99.90;;;;;;5098477;28;20500;-68
2022/11/07 06:12:44;;;;;;;7.30;6.43;;;9.60;99.90;;;;;;5099104;28;20489;-68
2022/11/07 06:15:11;;;;;;;6.23;5.63;;;9.60;99.90;;;;;;5097676;28;20531;-68
2022/11/07 06:17:38;;;;;;;6.33;5.73;;;9.60;99.90;;;;;;5098174;28;20491;-68
2022/11/07 06:20:08;;;;;;;8.13;6.77;;;9.60;99.90;;;;;;5098221;28;20454;-69
2022/11/07 06:22:34;;;;;;;8.43;6.23;;;9.60;99.90;;;;;;5097560;28;20453;-68
2022/11/07 06:25:02;;;;;;;7.90;6.40;;;9.60;99.90;;;;;;5097944;28;20560;-67
2022/11/07 06:27:30;;;;;;;7.50;5.47;;;9.60;99.90;;;;;;5097889;28;20495;-69
2022/11/07 06:29:57;;;;;;;7.37;5.80;;;9.60;99.90;;;;;;5097564;28;20514;-69
2022/11/07 06:32:24;;;;;;;6.50;5.90;;;9.60;99.90;;;;;;5097899;28;20527;-66
2022/11/07 06:34:51;;;;;;;6.83;5.37;;;9.60;99.90;;;;;;5095129;28;20548;-67
2022/11/07 06:37:19;;;;;;;6.23;5.43;;;9.50;99.90;;;;;;5095053;28;20510;-66
2022/11/07 06:39:46;;;;;;;7.27;6.30;;;9.60;99.90;;;;;;5095517;28;20567;-67
2022/11/07 06:42:13;;;;;;;7.10;5.60;;;9.60;99.90;;;;;;5095353;28;20449;-67
2022/11/07 06:44:40;;;;;;;6.17;5.43;;;9.60;99.90;;;;;;5095016;28;20610;-67
2022/11/07 06:47:07;;;;;;;7.47;5.00;;;9.70;99.90;;;;;;5095451;28;20514;-66
2022/11/07 06:49:33;;;;;;;9.13;6.00;;;9.70;99.90;;;;;;5095724;28;20526;-67
2022/11/07 06:52:00;;;;;;;9.30;5.67;;;9.70;99.90;;;;;;5095251;28;20538;-65
2022/11/07 06:54:29;;;;;;;6.43;5.37;;;9.70;99.90;;;;;;5094923;28;20547;-67
2022/11/07 06:56:56;;;;;;;6.20;5.60;;;9.70;99.90;;;;;;5095088;28;20514;-66
2022/11/07 06:59:22;;;;;;;9.93;5.50;;;9.70;99.90;;;;;;5095098;28;20548;-67
2022/11/07 07:01:50;;;;;;;6.00;5.20;;;9.80;99.90;;;;;;5095340;28;20496;-66
2022/11/07 07:04:16;;;;;;;5.50;5.00;;;9.80;99.90;;;;;;5095429;28;20453;-66
2022/11/07 07:06:44;;;;;;;6.23;5.30;;;9.80;99.90;;;;;;5095489;28;20453;-66
2022/11/07 07:09:11;;;;;;;5.80;4.70;;;9.80;99.90;;;;;;5095069;28;20457;-67
2022/11/07 07:11:41;;;;;;;6.10;5.10;;;9.80;99.90;;;;;;5094762;28;20477;-66
2022/11/07 07:14:08;;;;;;;7.30;5.47;;;9.90;99.90;;;;;;5094857;28;20442;-66
2022/11/07 07:16:35;;;;;;;5.70;4.80;;;9.90;99.90;;;;;;5095687;28;20453;-69
2022/11/07 07:19:02;;;;;;;6.10;5.07;;;9.90;99.90;;;;;;5096844;28;20963;-68
2022/11/07 07:21:30;;;;;;;5.90;4.97;;;9.90;99.90;;;;;;5096121;28;20453;-69
2022/11/07 07:23:57;;;;;;;5.30;4.43;;;9.90;99.90;;;;;;5096393;28;20785;-68
2022/11/07 07:26:24;;;;;;;5.50;4.80;;;9.90;99.90;;;;;;5096320;28;20537;-68
2022/11/07 07:28:52;;;;;;;6.33;4.80;;;9.90;99.90;;;;;;5096500;28;20620;-68
2022/11/07 07:31:22;;;;;;;11.03;5.83;;;10.00;99.90;;;;;;5096569;28;20560;-68
2022/11/07 07:33:49;;;;;;;6.90;4.73;;;10.10;99.90;;;;;;5097704;28;20981;-68
2022/11/07 07:36:17;;;;;;;7.43;5.40;;;10.10;99.90;;;;;;5096709;28;20449;-68
2022/11/07 07:38:44;;;;;;;6.80;4.87;;;10.10;99.90;;;;;;5096908;28;20457;-68
2022/11/07 07:41:11;;;;;;;5.73;5.13;;;10.20;99.90;;;;;;5096738;28;20457;-68
2022/11/07 07:43:38;;;;;;;5.23;4.13;;;10.20;99.90;;;;;;5100574;28;20506;-68
2022/11/07 07:46:08;;;;;;;5.77;5.13;;;10.20;99.90;;;;;;5100917;28;20522;-67
2022/11/07 07:48:35;;;;;;;5.90;5.00;;;10.30;99.90;;;;;;5100474;28;20468;-67
2022/11/07 07:51:02;;;;;;;6.70;4.67;;;10.30;99.90;;;;;;5099904;28;20503;-66
2022/11/07 07:53:29;;;;;;;4.70;4.20;;;10.40;99.90;;;;;;5099991;28;20544;-67
2022/11/07 07:55:57;;;;;;;8.10;4.43;;;10.40;99.90;;;;;;5100014;28;20488;-66
2022/11/07 07:58:25;;;;;;;13.47;4.77;;;10.40;99.90;;;;;;5099574;28;20485;-66
2022/11/07 08:00:52;;;;;;;5.50;5.00;;;10.40;99.90;;;;;;5099887;28;20511;-67
2022/11/07 08:03:21;;;;;;;6.17;4.70;;;10.40;99.90;;;;;;5100224;28;20481;-67
2022/11/07 08:05:53;;;;;;;5.83;4.27;;;10.40;99.90;;;;;;5100191;28;20506;-66
2022/11/07 08:08:20;;;;;;;8.03;5.70;;;10.30;99.90;;;;;;5099447;28;20438;-67
2022/11/07 08:10:52;;;;;;;7.63;4.60;;;10.30;99.90;;;;;;5100038;28;20521;-66
2022/11/07 08:13:21;;;;;;;5.13;4.20;;;10.30;99.90;;;;;;5099791;28;20524;-66
2022/11/07 08:15:48;;;;;;;5.57;4.40;;;10.30;99.90;;;;;;5100193;28;20457;-65
2022/11/07 08:18:14;;;;;;;6.33;3.73;;;10.30;99.90;;;;;;5100546;28;20457;-67
2022/11/07 08:20:43;;;;;;;6.70;3.50;;;10.30;99.90;;;;;;5099846;28;20457;-68
2022/11/07 08:23:11;;;;;;;6.00;4.13;;;10.40;99.90;;;;;;5100321;28;20521;-67
2022/11/07 08:25:38;;;;;;;4.23;3.73;;;10.40;99.90;;;;;;5099038;28;20571;-67
2022/11/07 08:28:07;;;;;;;6.10;4.40;;;10.40;99.90;;;;;;5099869;28;20464;-67
2022/11/07 08:30:34;;;;;;;5.80;4.27;;;10.50;99.90;;;;;;5098997;28;20547;-66
2022/11/07 08:33:01;;;;;;;7.33;4.30;;;10.50;99.90;;;;;;5099115;28;20544;-67
2022/11/07 08:35:29;;;;;;;7.60;4.37;;;10.50;99.90;;;;;;5099255;28;20465;-66
2022/11/07 08:37:58;;;;;;;8.50;3.67;;;10.50;99.90;;;;;;5099115;28;20991;-66
2022/11/07 08:40:25;;;;;;;5.73;3.70;;;10.60;99.90;;;;;;5098925;28;20839;-67
2022/11/07 08:42:52;;;;;;;3.67;3.37;;;10.70;99.90;;;;;;5099590;28;20536;-66
2022/11/07 08:45:19;;;;;;;4.80;3.40;;;10.70;99.90;;;;;;5098743;28;20548;-66
2022/11/07 08:47:46;;;;;;;7.40;3.87;;;10.80;99.90;;;;;;5098346;28;20518;-67
2022/11/07 08:50:13;;;;;;;4.90;3.27;;;10.90;99.90;;;;;;5098780;28;20445;-66
2022/11/07 08:52:40;;;;;;;4.90;3.20;;;11.00;99.90;;;;;;5098584;28;20560;-66
2022/11/07 08:55:09;;;;;;;4.50;3.67;;;11.10;99.90;;;;;;5099229;28;20492;-65
2022/11/07 08:57:36;;;;;;;3.73;2.70;;;11.20;99.90;;;;;;5099787;28;20453;-67
2022/11/07 09:00:04;;;;;;;3.83;2.73;;;11.30;99.90;;;;;;5098756;28;20500;-67
2022/11/07 09:02:32;;;;;;;3.17;2.80;;;11.40;99.90;;;;;;5099599;28;20944;-67
2022/11/07 09:04:59;;;;;;;3.20;2.90;;;11.50;99.90;;;;;;5099001;28;20453;-67
2022/11/07 09:07:26;;;;;;;4.03;2.93;;;11.50;99.90;;;;;;5099272;28;20480;-66
2022/11/07 09:09:53;;;;;;;3.20;2.90;;;11.60;99.90;;;;;;5099314;28;20518;-66
2022/11/07 09:12:21;;;;;;;6.43;2.80;;;11.70;99.90;;;;;;5099542;28;20513;-67
2022/11/07 09:14:48;;;;;;;3.23;2.90;;;11.70;99.90;;;;;;5098645;28;20851;-66
2022/11/07 09:17:16;;;;;;;13.80;3.87;;;11.70;99.90;;;;;;5098538;28;20526;-66
2022/11/07 09:19:43;;;;;;;3.40;2.63;;;11.80;99.90;;;;;;5098030;28;20928;-67
2022/11/07 09:22:10;;;;;;;3.33;2.30;;;11.90;99.90;;;;;;5098449;28;20457;-67
2022/11/07 09:24:39;;;;;;;3.60;2.37;;;11.90;99.90;;;;;;5097635;28;20572;-66
2022/11/07 09:27:06;;;;;;;3.43;2.60;;;12.00;99.90;;;;;;5099011;28;20441;-67
2022/11/07 09:29:34;;;;;;;3.83;2.67;;;12.00;99.90;;;;;;5097979;28;20453;-66
2022/11/07 09:32:01;;;;;;;3.37;3.07;;;12.10;99.90;;;;;;5098028;28;20481;-66
2022/11/07 09:34:28;;;;;;;3.73;3.23;;;12.10;99.90;;;;;;5098258;28;20552;-67
2022/11/07 09:36:55;;;;;;;5.03;2.30;;;12.20;99.90;;;;;;5099329;28;20453;-68
2022/11/07 09:39:22;;;;;;;4.50;2.77;;;12.30;99.90;;;;;;5097002;28;20458;-67
2022/11/07 09:41:57;;;;;;;2.47;2.27;;;12.30;99.90;;;;;;5097716;28;20450;-66
2022/11/07 09:44:45;;;;;;;3.50;2.43;;;12.40;99.90;;;;;;5097992;28;20461;-67
2022/11/07 09:47:19;;;;;;;3.07;2.33;;;12.50;99.90;;;;;;5098381;28;20488;-67
2022/11/07 09:49:49;;;;;;;3.17;2.20;;;12.50;99.90;;;;;;5097341;28;20527;-66
2022/11/07 09:52:23;;;;;;;2.93;2.60;;;12.60;99.90;;;;;;5097935;28;20513;-69
2022/11/07 09:54:55;;;;;;;3.70;2.23;;;12.70;99.90;;;;;;5097683;28;21009;-67
2022/11/07 09:57:23;;;;;;;3.50;2.23;;;12.80;99.90;;;;;;5098127;28;20485;-67
2022/11/07 09:59:54;;;;;;;3.40;2.20;;;12.90;99.90;;;;;;5097706;28;20495;-67
2022/11/07 10:02:24;;;;;;;3.73;2.03;;;12.90;99.90;;;;;;5097602;28;20510;-67
2022/11/07 10:04:56;;;;;;;9.30;2.70;;;13.00;99.90;;;;;;5096267;28;20905;-66
2022/11/07 10:07:31;;;;;;;4.80;2.10;;;13.00;99.90;;;;;;5097929;28;20498;-67
2022/11/07 10:10:05;;;;;;;4.50;2.30;;;13.00;99.90;;;;;;5096857;28;20540;-67
2022/11/07 10:12:46;;;;;;;4.70;2.00;;;13.00;99.90;;;;;;5097911;28;20539;-66
2022/11/07 10:15:23;;;;;;;3.97;1.70;;;13.00;99.90;;;;;;5097385;28;20521;-67
2022/11/07 10:17:58;;;;;;;5.33;1.80;;;13.00;99.90;;;;;;5097474;28;20437;-66
2022/11/07 10:20:37;;;;;;;5.60;2.33;;;13.10;99.90;;;;;;5098276;28;20823;-69
2022/11/07 10:23:21;;;;;;;2.87;2.10;;;13.10;99.90;;;;;;5097108;28;20477;-68
2022/11/07 10:25:53;;;;;;;4.90;2.50;;;13.20;99.90;;;;;;5098232;28;20542;-67
2022/11/07 10:28:22;;;;;;;4.10;1.97;;;13.20;99.90;;;;;;5097209;28;20526;-66
2022/11/07 10:30:52;;;;;;;3.37;1.93;;;13.20;99.90;;;;;;5096957;28;20534;-67
2022/11/07 10:33:35;;;;;;;5.97;2.10;;;13.30;99.90;;;;;;5096990;28;20568;-66
2022/11/07 10:36:07;;;;;;;4.07;2.27;;;13.30;99.90;;;;;;5097919;28;20480;-67
2022/11/07 10:38:39;;;;;;;3.10;2.23;;;13.30;99.90;;;;;;5097626;28;20774;-67
2022/11/07 10:41:14;;;;;;;3.33;1.83;;;13.40;99.90;;;;;;5098314;28;20493;-66
2022/11/07 10:43:43;;;;;;;4.60;2.10;;;13.50;99.90;;;;;;5098249;28;20433;-67
2022/11/07 10:46:17;;;;;;;3.13;1.90;;;13.60;99.90;;;;;;5097195;28;20552;-67
2022/11/07 10:48:55;;;;;;;3.73;1.90;;;13.70;99.90;;;;;;5097113;28;20527;-66
2022/11/07 10:51:33;;;;;;;3.13;1.90;;;13.80;99.90;;;;;;5096865;28;20441;-67
2022/11/07 10:54:00;;;;;;;4.33;1.87;;;13.90;99.90;;;;;;5096882;28;20492;-66
2022/11/07 10:56:27;;;;;;;3.70;1.80;;;13.90;99.90;;;;;;5096567;28;20869;-66
2022/11/07 10:58:54;;;;;;;4.40;2.20;;;14.00;99.90;;;;;;5095935;28;20544;-67
2022/11/07 11:01:25;;;;;;;2.93;1.80;;;14.00;99.90;;;;;;5096268;28;20548;-66
2022/11/07 11:03:53;;;;;;;3.90;2.47;;;14.10;99.90;;;;;;5097204;28;20510;-68
2022/11/07 11:06:23;;;;;;;3.03;2.13;;;14.10;99.90;;;;;;5097158;28;20530;-68
2022/11/07 11:08:52;;;;;;;5.23;1.97;;;14.10;99.90;;;;;;5096076;28;20484;-67
2022/11/07 11:11:27;;;;;;;4.27;1.80;;;14.20;99.90;;;;;;5097036;28;20781;-66
2022/11/07 11:14:03;;;;;;;2.00;1.70;;;14.30;99.90;;;;;;5096399;28;20472;-65
2022/11/07 11:16:36;;;;;;;2.90;1.30;;;14.30;99.90;;;;;;5096181;28;20437;-67
2022/11/07 11:19:03;;;;;;;2.53;1.70;;;14.30;99.90;;;;;;5095742;28;20898;-67
2022/11/07 11:21:41;;;;;;;3.83;2.00;;;14.30;99.90;;;;;;5096139;28;20794;-66
2022/11/07 11:24:17;;;;;;;4.90;1.80;;;14.30;99.90;;;;;;5096229;28;20502;-67
2022/11/07 11:26:46;;;;;;;6.70;2.07;;;14.40;99.90;;;;;;5095893;28;20821;-67
2022/11/07 11:29:24;;;;;;;3.10;1.67;;;14.40;99.90;;;;;;5095396;28;20442;-66
2022/11/07 11:31:55;;;;;;;5.90;2.17;;;14.40;99.90;;;;;;5095372;28;20470;-67
2022/11/07 11:34:30;;;;;;;3.67;1.60;;;14.60;99.90;;;;;;5095250;28;20446;-67
2022/11/07 11:37:04;;;;;;;1.87;1.60;;;14.60;99.90;;;;;;5095130;28;20532;-66
2022/11/07 11:39:37;;;;;;;2.47;1.80;;;14.70;99.90;;;;;;5095582;28;20442;-67
2022/11/07 11:42:04;;;;;;;4.03;1.57;;;14.70;99.90;;;;;;5096018;28;20438;-65
2022/11/07 11:44:37;;;;;;;3.10;1.80;;;14.80;99.90;;;;;;5095771;28;20619;-67
2022/11/07 11:47:14;;;;;;;3.97;1.77;;;14.90;99.90;;;;;;5095813;28;20747;-66
2022/11/07 11:49:46;;;;;;;2.83;1.63;;;15.00;99.90;;;;;;5096006;28;20524;-67
2022/11/07 11:52:20;;;;;;;3.80;1.63;;;15.20;99.90;;;;;;5096082;28;20523;-67
2022/11/07 11:54:48;;;;;;;3.63;1.70;;;15.70;99.90;;;;;;5095132;28;20441;-67
2022/11/07 11:57:18;;;;;;;5.37;1.60;;;16.20;99.90;;;;;;5095644;28;20515;-66
2022/11/07 12:00:14;;;;;;;4.00;1.87;;;16.40;99.90;;;;;;5095577;28;20445;-66
2022/11/07 12:03:13;;;;;;;5.23;1.70;;;16.60;99.90;;;;;;5060677;28;20481;-67
2022/11/07 12:06:15;;;;;;;2.13;1.77;;;17.00;99.90;;;;;;5095970;28;20438;-66
2022/11/07 12:09:07;;;;;;;2.67;1.70;;;17.10;99.90;;;;;;5090824;28;20448;-67
2022/11/07 12:11:43;;;;;;;2.40;1.63;;;17.20;99.90;;;;;;5094850;28;20466;-67
2022/11/07 12:14:32;;;;;;;1.77;1.23;;;17.50;99.90;;;;;;5094837;28;20909;-67
2022/11/07 12:17:09;;;;;;;3.90;1.73;;;18.30;99.90;;;;;;5095234;28;20987;-66
2022/11/07 12:19:46;;;;;;;3.83;1.70;;;18.20;99.90;;;;;;5094778;28;20473;-67
2022/11/07 12:22:21;;;;;;;3.73;1.60;;;17.90;99.90;;;;;;5095140;28;20506;-68
2022/11/07 12:24:55;;;;;;;3.30;1.70;;;17.70;99.90;;;;;;5094731;28;20527;-66
2022/11/07 12:27:29;;;;;;;5.27;1.90;;;17.70;99.90;;;;;;5094763;28;20510;-67
2022/11/07 12:30:08;;;;;;;6.17;1.63;;;17.50;99.90;;;;;;5097280;28;20479;-67
2022/11/07 12:32:43;;;;;;;3.47;1.70;;;17.30;99.90;;;;;;5098277;28;20479;-67
2022/11/07 12:35:26;;;;;;;3.50;1.67;;;17.70;99.90;;;;;;5098599;28;20437;-67
2022/11/07 12:38:13;;;;;;;3.53;1.30;;;18.40;99.90;;;;;;5099206;28;20528;-67
2022/11/07 12:40:51;;;;;;;4.50;1.53;;;18.80;99.90;;;;;;5098136;28;20455;-67
2022/11/07 12:43:32;;;;;;;3.63;1.70;;;19.00;99.90;;;;;;5098193;28;20516;-67
2022/11/07 12:46:13;;;;;;;3.60;1.63;;;18.40;99.90;;;;;;5098320;28;20482;-66
2022/11/07 12:48:59;;;;;;;5.73;1.67;;;17.70;99.90;;;;;;5098568;28;20503;-68
2022/11/07 12:51:43;;;;;;;4.27;1.70;;;17.40;99.90;;;;;;5098487;28;20488;-66
2022/11/07 12:54:32;;;;;;;9.17;1.70;;;17.50;99.90;;;;;;5098025;28;20839;-67
2022/11/07 12:57:02;;;;;;;2.50;1.33;;;17.30;99.90;;;;;;5098489;28;20627;-67
2022/11/07 12:59:32;;;;;;;3.30;1.60;;;16.90;99.90;;;;;;5098560;28;20478;-69
2022/11/07 13:02:11;;;;;;;4.63;1.80;;;16.40;99.90;;;;;;5098225;28;20453;-67
2022/11/07 13:04:45;;;;;;;7.43;3.90;;;16.00;99.90;;;;;;5098588;28;20477;-66
2022/11/07 13:07:21;;;;;;;3.20;1.77;;;15.80;99.90;;;;;;5098405;28;20503;-67
2022/11/07 13:09:56;;;;;;;3.50;1.80;;;15.70;99.90;;;;;;5098008;28;20544;-66
2022/11/07 13:12:30;;;;;;;3.13;2.37;;;15.60;99.90;;;;;;5098353;28;20441;-66